sensor_id;sensor_type;location;lat;lon;timestamp;P1;durP1;ratioP1;P2;durP2;ratioP2
52734;SDS011;38631;47.572;10.704;2023-02-18T00:02:21;4.22;;;0.80;;
52734;SDS011;38631;47.572;10.704;2023-02-18T00:04:46;2.47;;;0.80;;
52734;SDS011;38631;47.572;10.704;2023-02-18T00:07:12;2.90;;;0.93;;
52734;SDS011;38631;47.572;10.704;2023-02-18T00:09:37;2.20;;;0.57;;
52734;SDS011;38631;47.572;10.704;2023-02-18T00:12:03;1.25;;;0.70;;
52734;SDS011;38631;47.572;10.704;2023-02-18T00:14:28;1.85;;;0.82;;
52734;SDS011;38631;47.572;10.704;2023-02-18T00:16:53;2.70;;;0.70;;
52734;SDS011;38631;47.572;10.704;2023-02-18T00:19:19;1.15;;;0.45;;
52734;SDS011;38631;47.572;10.704;2023-02-18T00:21:45;1.73;;;0.80;;
52734;SDS011;38631;47.572;10.704;2023-02-18T00:24:12;1.88;;;1.20;;
52734;SDS011;38631;47.572;10.704;2023-02-18T00:26:39;1.77;;;0.82;;
52734;SDS011;38631;47.572;10.704;2023-02-18T00:29:05;2.53;;;0.60;;
52734;SDS011;38631;47.572;10.704;2023-02-18T00:31:34;1.75;;;0.77;;
52734;SDS011;38631;47.572;10.704;2023-02-18T00:34:01;1.52;;;1.05;;
52734;SDS011;38631;47.572;10.704;2023-02-18T00:36:28;3.15;;;1.73;;
52734;SDS011;38631;47.572;10.704;2023-02-18T00:38:55;3.42;;;1.00;;
52734;SDS011;38631;47.572;10.704;2023-02-18T00:41:23;1.90;;;1.20;;
52734;SDS011;38631;47.572;10.704;2023-02-18T00:43:50;2.47;;;1.00;;
52734;SDS011;38631;47.572;10.704;2023-02-18T00:46:15;2.83;;;0.80;;
52734;SDS011;38631;47.572;10.704;2023-02-18T00:48:41;1.35;;;0.85;;
52734;SDS011;38631;47.572;10.704;2023-02-18T00:51:07;3.28;;;0.95;;
52734;SDS011;38631;47.572;10.704;2023-02-18T00:53:33;0.75;;;0.40;;
52734;SDS011;38631;47.572;10.704;2023-02-18T00:55:59;0.70;;;0.40;;
52734;SDS011;38631;47.572;10.704;2023-02-18T00:58:25;1.10;;;0.60;;
52734;SDS011;38631;47.572;10.704;2023-02-18T01:00:51;1.13;;;0.70;;
52734;SDS011;38631;47.572;10.704;2023-02-18T01:03:17;2.08;;;1.13;;
52734;SDS011;38631;47.572;10.704;2023-02-18T01:05:43;2.20;;;1.48;;
52734;SDS011;38631;47.572;10.704;2023-02-18T01:08:09;3.28;;;2.00;;
52734;SDS011;38631;47.572;10.704;2023-02-18T01:10:36;3.50;;;2.20;;
52734;SDS011;38631;47.572;10.704;2023-02-18T01:13:04;5.70;;;3.53;;
52734;SDS011;38631;47.572;10.704;2023-02-18T01:15:29;5.57;;;4.10;;
52734;SDS011;38631;47.572;10.704;2023-02-18T01:17:55;5.97;;;4.15;;
52734;SDS011;38631;47.572;10.704;2023-02-18T01:20:21;8.20;;;4.38;;
52734;SDS011;38631;47.572;10.704;2023-02-18T01:22:46;7.50;;;4.13;;
52734;SDS011;38631;47.572;10.704;2023-02-18T01:25:12;5.03;;;3.17;;
52734;SDS011;38631;47.572;10.704;2023-02-18T01:27:38;5.07;;;2.25;;
52734;SDS011;38631;47.572;10.704;2023-02-18T01:30:04;4.15;;;2.03;;
52734;SDS011;38631;47.572;10.704;2023-02-18T01:32:32;4.18;;;2.13;;
52734;SDS011;38631;47.572;10.704;2023-02-18T01:35:17;4.03;;;2.25;;
52734;SDS011;38631;47.572;10.704;2023-02-18T01:37:43;2.47;;;1.60;;
52734;SDS011;38631;47.572;10.704;2023-02-18T01:40:11;2.75;;;1.73;;
52734;SDS011;38631;47.572;10.704;2023-02-18T01:42:37;2.92;;;1.58;;
52734;SDS011;38631;47.572;10.704;2023-02-18T01:48:02;2.03;;;1.20;;
52734;SDS011;38631;47.572;10.704;2023-02-18T01:50:32;2.33;;;1.10;;
52734;SDS011;38631;47.572;10.704;2023-02-18T01:53:01;1.65;;;1.02;;
52734;SDS011;38631;47.572;10.704;2023-02-18T01:55:27;1.35;;;0.95;;
52734;SDS011;38631;47.572;10.704;2023-02-18T01:57:52;2.17;;;1.05;;
52734;SDS011;38631;47.572;10.704;2023-02-18T02:00:18;3.80;;;1.30;;
52734;SDS011;38631;47.572;10.704;2023-02-18T02:02:48;2.50;;;0.77;;
52734;SDS011;38631;47.572;10.704;2023-02-18T02:05:16;0.90;;;0.55;;
52734;SDS011;38631;47.572;10.704;2023-02-18T02:07:43;1.48;;;0.93;;
52734;SDS011;38631;47.572;10.704;2023-02-18T02:10:10;2.55;;;0.93;;
52734;SDS011;38631;47.572;10.704;2023-02-18T02:16:00;0.82;;;0.70;;
52734;SDS011;38631;47.572;10.704;2023-02-18T02:25:00;1.17;;;0.70;;
52734;SDS011;38631;47.572;10.704;2023-02-18T02:29:54;3.10;;;1.35;;
52734;SDS011;38631;47.572;10.704;2023-02-18T02:43:45;1.83;;;1.20;;
52734;SDS011;38631;47.572;10.704;2023-02-18T02:46:36;2.85;;;0.85;;
52734;SDS011;38631;47.572;10.704;2023-02-18T02:51:46;1.15;;;0.63;;
52734;SDS011;38631;47.572;10.704;2023-02-18T02:54:25;1.33;;;1.20;;
52734;SDS011;38631;47.572;10.704;2023-02-18T02:59:32;3.75;;;0.80;;
52734;SDS011;38631;47.572;10.704;2023-02-18T03:02:13;1.70;;;0.82;;
52734;SDS011;38631;47.572;10.704;2023-02-18T03:04:51;2.13;;;1.00;;
52734;SDS011;38631;47.572;10.704;2023-02-18T03:18:31;2.05;;;1.00;;
52734;SDS011;38631;47.572;10.704;2023-02-18T03:23:41;2.30;;;1.10;;
52734;SDS011;38631;47.572;10.704;2023-02-18T03:26:17;2.20;;;0.90;;
52734;SDS011;38631;47.572;10.704;2023-02-18T03:28:45;1.35;;;0.73;;
52734;SDS011;38631;47.572;10.704;2023-02-18T03:31:15;2.50;;;0.60;;
52734;SDS011;38631;47.572;10.704;2023-02-18T03:33:46;2.67;;;1.92;;
52734;SDS011;38631;47.572;10.704;2023-02-18T03:36:16;4.22;;;1.80;;
52734;SDS011;38631;47.572;10.704;2023-02-18T03:41:37;2.80;;;1.20;;
52734;SDS011;38631;47.572;10.704;2023-02-18T03:44:04;5.03;;;1.33;;
52734;SDS011;38631;47.572;10.704;2023-02-18T03:46:31;3.17;;;1.30;;
52734;SDS011;38631;47.572;10.704;2023-02-18T03:48:58;2.10;;;0.85;;
52734;SDS011;38631;47.572;10.704;2023-02-18T03:51:23;4.00;;;1.20;;
52734;SDS011;38631;47.572;10.704;2023-02-18T03:53:49;2.40;;;1.13;;
52734;SDS011;38631;47.572;10.704;2023-02-18T03:56:14;1.60;;;1.20;;
52734;SDS011;38631;47.572;10.704;2023-02-18T03:58:40;2.78;;;1.10;;
52734;SDS011;38631;47.572;10.704;2023-02-18T04:01:06;2.28;;;1.15;;
52734;SDS011;38631;47.572;10.704;2023-02-18T04:03:31;2.42;;;0.93;;
52734;SDS011;38631;47.572;10.704;2023-02-18T04:05:57;4.07;;;1.40;;
52734;SDS011;38631;47.572;10.704;2023-02-18T04:08:22;4.47;;;1.25;;
52734;SDS011;38631;47.572;10.704;2023-02-18T04:10:48;2.17;;;1.20;;
52734;SDS011;38631;47.572;10.704;2023-02-18T04:13:14;3.10;;;1.23;;
52734;SDS011;38631;47.572;10.704;2023-02-18T04:15:39;2.28;;;1.20;;
52734;SDS011;38631;47.572;10.704;2023-02-18T04:18:04;1.88;;;1.05;;
52734;SDS011;38631;47.572;10.704;2023-02-18T04:20:30;1.83;;;1.20;;
52734;SDS011;38631;47.572;10.704;2023-02-18T04:22:55;5.13;;;3.30;;
52734;SDS011;38631;47.572;10.704;2023-02-18T04:25:21;8.13;;;5.63;;
52734;SDS011;38631;47.572;10.704;2023-02-18T04:27:46;5.78;;;4.07;;
52734;SDS011;38631;47.572;10.704;2023-02-18T04:30:12;5.43;;;3.67;;
52734;SDS011;38631;47.572;10.704;2023-02-18T04:32:37;5.65;;;3.60;;
52734;SDS011;38631;47.572;10.704;2023-02-18T04:35:03;4.47;;;2.03;;
52734;SDS011;38631;47.572;10.704;2023-02-18T04:37:29;3.40;;;1.92;;
52734;SDS011;38631;47.572;10.704;2023-02-18T04:39:54;2.85;;;1.73;;
52734;SDS011;38631;47.572;10.704;2023-02-18T04:42:20;2.22;;;1.38;;
52734;SDS011;38631;47.572;10.704;2023-02-18T04:44:45;2.40;;;1.20;;
52734;SDS011;38631;47.572;10.704;2023-02-18T04:47:10;2.17;;;1.15;;
52734;SDS011;38631;47.572;10.704;2023-02-18T04:49:36;2.78;;;1.20;;
52734;SDS011;38631;47.572;10.704;2023-02-18T04:52:01;1.60;;;0.98;;
52734;SDS011;38631;47.572;10.704;2023-02-18T04:54:26;1.38;;;0.85;;
52734;SDS011;38631;47.572;10.704;2023-02-18T04:56:52;2.72;;;1.23;;
52734;SDS011;38631;47.572;10.704;2023-02-18T04:59:17;1.60;;;0.90;;
52734;SDS011;38631;47.572;10.704;2023-02-18T05:01:42;3.00;;;0.90;;
52734;SDS011;38631;47.572;10.704;2023-02-18T05:04:08;1.40;;;1.10;;
52734;SDS011;38631;47.572;10.704;2023-02-18T05:06:33;1.50;;;0.80;;
52734;SDS011;38631;47.572;10.704;2023-02-18T05:08:59;1.25;;;0.70;;
52734;SDS011;38631;47.572;10.704;2023-02-18T05:11:24;2.17;;;0.70;;
52734;SDS011;38631;47.572;10.704;2023-02-18T05:13:49;2.15;;;0.93;;
52734;SDS011;38631;47.572;10.704;2023-02-18T05:16:15;1.92;;;1.40;;
52734;SDS011;38631;47.572;10.704;2023-02-18T05:18:40;1.95;;;0.90;;
52734;SDS011;38631;47.572;10.704;2023-02-18T05:21:06;2.05;;;1.00;;
52734;SDS011;38631;47.572;10.704;2023-02-18T05:23:32;2.03;;;0.90;;
52734;SDS011;38631;47.572;10.704;2023-02-18T05:25:57;2.67;;;0.95;;
52734;SDS011;38631;47.572;10.704;2023-02-18T05:28:23;1.75;;;0.98;;
52734;SDS011;38631;47.572;10.704;2023-02-18T05:30:48;2.55;;;1.20;;
52734;SDS011;38631;47.572;10.704;2023-02-18T05:33:14;3.42;;;1.10;;
52734;SDS011;38631;47.572;10.704;2023-02-18T05:35:39;2.40;;;1.30;;
52734;SDS011;38631;47.572;10.704;2023-02-18T05:38:04;1.67;;;1.13;;
52734;SDS011;38631;47.572;10.704;2023-02-18T05:40:30;1.48;;;1.10;;
52734;SDS011;38631;47.572;10.704;2023-02-18T05:42:55;2.33;;;1.42;;
52734;SDS011;38631;47.572;10.704;2023-02-18T05:45:21;2.03;;;1.38;;
52734;SDS011;38631;47.572;10.704;2023-02-18T05:47:46;4.38;;;2.60;;
52734;SDS011;38631;47.572;10.704;2023-02-18T05:50:11;6.78;;;3.50;;
52734;SDS011;38631;47.572;10.704;2023-02-18T05:52:37;4.68;;;3.05;;
52734;SDS011;38631;47.572;10.704;2023-02-18T05:55:02;4.65;;;3.60;;
52734;SDS011;38631;47.572;10.704;2023-02-18T05:57:28;5.82;;;2.80;;
52734;SDS011;38631;47.572;10.704;2023-02-18T05:59:53;6.32;;;3.50;;
52734;SDS011;38631;47.572;10.704;2023-02-18T06:02:18;7.45;;;3.97;;
52734;SDS011;38631;47.572;10.704;2023-02-18T06:04:44;6.72;;;3.63;;
52734;SDS011;38631;47.572;10.704;2023-02-18T06:07:09;5.65;;;3.70;;
52734;SDS011;38631;47.572;10.704;2023-02-18T06:09:35;6.53;;;4.00;;
52734;SDS011;38631;47.572;10.704;2023-02-18T06:12:00;7.03;;;3.97;;
52734;SDS011;38631;47.572;10.704;2023-02-18T06:14:25;6.57;;;3.70;;
52734;SDS011;38631;47.572;10.704;2023-02-18T06:16:51;5.60;;;2.88;;
52734;SDS011;38631;47.572;10.704;2023-02-18T06:19:16;4.28;;;3.00;;
52734;SDS011;38631;47.572;10.704;2023-02-18T06:21:42;3.90;;;2.58;;
52734;SDS011;38631;47.572;10.704;2023-02-18T06:24:07;4.85;;;2.75;;
52734;SDS011;38631;47.572;10.704;2023-02-18T06:26:33;4.70;;;2.80;;
52734;SDS011;38631;47.572;10.704;2023-02-18T06:28:58;3.75;;;1.95;;
52734;SDS011;38631;47.572;10.704;2023-02-18T06:31:24;3.38;;;2.08;;
52734;SDS011;38631;47.572;10.704;2023-02-18T06:33:49;4.07;;;1.83;;
52734;SDS011;38631;47.572;10.704;2023-02-18T06:36:14;3.80;;;1.58;;
52734;SDS011;38631;47.572;10.704;2023-02-18T06:38:40;4.88;;;1.90;;
52734;SDS011;38631;47.572;10.704;2023-02-18T06:41:07;7.10;;;3.60;;
52734;SDS011;38631;47.572;10.704;2023-02-18T06:43:33;6.97;;;3.42;;
52734;SDS011;38631;47.572;10.704;2023-02-18T06:45:59;6.35;;;3.10;;
52734;SDS011;38631;47.572;10.704;2023-02-18T06:48:24;4.85;;;2.85;;
52734;SDS011;38631;47.572;10.704;2023-02-18T06:50:50;6.47;;;3.42;;
52734;SDS011;38631;47.572;10.704;2023-02-18T06:53:15;7.47;;;5.05;;
52734;SDS011;38631;47.572;10.704;2023-02-18T06:55:41;6.55;;;3.83;;
52734;SDS011;38631;47.572;10.704;2023-02-18T06:58:08;5.53;;;3.63;;
52734;SDS011;38631;47.572;10.704;2023-02-18T07:00:35;7.65;;;3.90;;
52734;SDS011;38631;47.572;10.704;2023-02-18T07:03:01;4.97;;;3.25;;
52734;SDS011;38631;47.572;10.704;2023-02-18T07:05:26;5.15;;;3.53;;
52734;SDS011;38631;47.572;10.704;2023-02-18T07:07:52;7.88;;;3.88;;
52734;SDS011;38631;47.572;10.704;2023-02-18T07:10:18;6.65;;;3.15;;
52734;SDS011;38631;47.572;10.704;2023-02-18T07:12:43;5.43;;;3.20;;
52734;SDS011;38631;47.572;10.704;2023-02-18T07:15:09;8.90;;;3.95;;
52734;SDS011;38631;47.572;10.704;2023-02-18T07:17:34;5.93;;;3.72;;
52734;SDS011;38631;47.572;10.704;2023-02-18T07:19:59;6.55;;;3.30;;
52734;SDS011;38631;47.572;10.704;2023-02-18T07:22:25;8.88;;;6.55;;
52734;SDS011;38631;47.572;10.704;2023-02-18T07:24:51;7.55;;;5.05;;
52734;SDS011;38631;47.572;10.704;2023-02-18T07:27:17;11.48;;;7.95;;
52734;SDS011;38631;47.572;10.704;2023-02-18T07:29:43;11.02;;;8.60;;
52734;SDS011;38631;47.572;10.704;2023-02-18T07:32:12;10.55;;;7.50;;
52734;SDS011;38631;47.572;10.704;2023-02-18T07:34:39;13.88;;;8.48;;
52734;SDS011;38631;47.572;10.704;2023-02-18T07:37:04;11.70;;;7.32;;
52734;SDS011;38631;47.572;10.704;2023-02-18T07:39:43;11.25;;;8.50;;
52734;SDS011;38631;47.572;10.704;2023-02-18T07:42:09;12.15;;;7.90;;
52734;SDS011;38631;47.572;10.704;2023-02-18T07:44:35;10.52;;;7.68;;
52734;SDS011;38631;47.572;10.704;2023-02-18T07:47:02;13.07;;;8.80;;
52734;SDS011;38631;47.572;10.704;2023-02-18T07:49:28;12.13;;;8.82;;
52734;SDS011;38631;47.572;10.704;2023-02-18T07:51:54;7.38;;;5.75;;
52734;SDS011;38631;47.572;10.704;2023-02-18T07:54:19;9.18;;;5.50;;
52734;SDS011;38631;47.572;10.704;2023-02-18T07:56:45;10.25;;;7.60;;
52734;SDS011;38631;47.572;10.704;2023-02-18T07:59:10;9.80;;;7.25;;
52734;SDS011;38631;47.572;10.704;2023-02-18T08:01:36;11.15;;;7.97;;
52734;SDS011;38631;47.572;10.704;2023-02-18T08:04:02;8.85;;;6.85;;
52734;SDS011;38631;47.572;10.704;2023-02-18T08:06:29;9.75;;;7.15;;
52734;SDS011;38631;47.572;10.704;2023-02-18T08:08:57;10.85;;;8.57;;
52734;SDS011;38631;47.572;10.704;2023-02-18T08:11:23;14.50;;;9.38;;
52734;SDS011;38631;47.572;10.704;2023-02-18T08:13:48;8.32;;;6.30;;
52734;SDS011;38631;47.572;10.704;2023-02-18T08:16:14;9.52;;;6.05;;
52734;SDS011;38631;47.572;10.704;2023-02-18T08:18:40;7.65;;;5.00;;
52734;SDS011;38631;47.572;10.704;2023-02-18T08:21:06;6.22;;;4.32;;
52734;SDS011;38631;47.572;10.704;2023-02-18T08:23:31;4.53;;;2.80;;
52734;SDS011;38631;47.572;10.704;2023-02-18T08:25:57;11.57;;;6.30;;
52734;SDS011;38631;47.572;10.704;2023-02-18T08:28:22;6.18;;;4.47;;
52734;SDS011;38631;47.572;10.704;2023-02-18T08:30:49;5.35;;;3.30;;
52734;SDS011;38631;47.572;10.704;2023-02-18T08:33:16;4.57;;;2.90;;
52734;SDS011;38631;47.572;10.704;2023-02-18T08:35:43;4.53;;;2.30;;
52734;SDS011;38631;47.572;10.704;2023-02-18T08:38:09;2.90;;;1.75;;
52734;SDS011;38631;47.572;10.704;2023-02-18T08:40:34;5.45;;;2.33;;
52734;SDS011;38631;47.572;10.704;2023-02-18T08:42:59;7.32;;;3.03;;
52734;SDS011;38631;47.572;10.704;2023-02-18T08:45:25;4.88;;;3.17;;
52734;SDS011;38631;47.572;10.704;2023-02-18T08:47:50;5.18;;;2.78;;
52734;SDS011;38631;47.572;10.704;2023-02-18T08:50:16;7.22;;;4.72;;
52734;SDS011;38631;47.572;10.704;2023-02-18T08:52:41;6.50;;;3.92;;
52734;SDS011;38631;47.572;10.704;2023-02-18T08:55:07;7.68;;;3.70;;
52734;SDS011;38631;47.572;10.704;2023-02-18T08:57:32;5.63;;;3.25;;
52734;SDS011;38631;47.572;10.704;2023-02-18T08:59:57;5.68;;;2.90;;
52734;SDS011;38631;47.572;10.704;2023-02-18T09:02:23;2.75;;;1.90;;
52734;SDS011;38631;47.572;10.704;2023-02-18T09:04:48;2.33;;;1.67;;
52734;SDS011;38631;47.572;10.704;2023-02-18T09:07:15;3.28;;;2.03;;
52734;SDS011;38631;47.572;10.704;2023-02-18T09:09:41;3.42;;;1.90;;
52734;SDS011;38631;47.572;10.704;2023-02-18T09:12:07;3.72;;;1.70;;
52734;SDS011;38631;47.572;10.704;2023-02-18T09:14:32;2.47;;;1.00;;
52734;SDS011;38631;47.572;10.704;2023-02-18T09:16:58;1.75;;;0.98;;
52734;SDS011;38631;47.572;10.704;2023-02-18T09:19:24;2.75;;;1.38;;
52734;SDS011;38631;47.572;10.704;2023-02-18T09:21:49;1.90;;;1.00;;
52734;SDS011;38631;47.572;10.704;2023-02-18T09:24:17;3.92;;;1.63;;
52734;SDS011;38631;47.572;10.704;2023-02-18T09:26:44;2.33;;;0.90;;
52734;SDS011;38631;47.572;10.704;2023-02-18T09:29:09;3.17;;;1.30;;
52734;SDS011;38631;47.572;10.704;2023-02-18T09:31:35;4.20;;;1.05;;
52734;SDS011;38631;47.572;10.704;2023-02-18T09:34:02;1.65;;;0.80;;
52734;SDS011;38631;47.572;10.704;2023-02-18T09:36:28;1.63;;;1.00;;
52734;SDS011;38631;47.572;10.704;2023-02-18T09:38:54;2.38;;;0.80;;
52734;SDS011;38631;47.572;10.704;2023-02-18T09:44:13;1.23;;;0.70;;
52734;SDS011;38631;47.572;10.704;2023-02-18T09:49:16;2.33;;;1.02;;
52734;SDS011;38631;47.572;10.704;2023-02-18T09:51:45;2.53;;;1.00;;
52734;SDS011;38631;47.572;10.704;2023-02-18T09:54:11;2.83;;;1.20;;
52734;SDS011;38631;47.572;10.704;2023-02-18T09:56:42;1.00;;;0.70;;
52734;SDS011;38631;47.572;10.704;2023-02-18T09:59:14;1.25;;;0.80;;
52734;SDS011;38631;47.572;10.704;2023-02-18T10:01:46;1.45;;;0.82;;
52734;SDS011;38631;47.572;10.704;2023-02-18T10:04:17;4.15;;;0.80;;
52734;SDS011;38631;47.572;10.704;2023-02-18T10:06:47;3.95;;;0.85;;
52734;SDS011;38631;47.572;10.704;2023-02-18T10:09:27;2.75;;;1.15;;
52734;SDS011;38631;47.572;10.704;2023-02-18T10:11:57;1.25;;;0.60;;
52734;SDS011;38631;47.572;10.704;2023-02-18T10:14:26;1.50;;;0.80;;
52734;SDS011;38631;47.572;10.704;2023-02-18T10:16:54;3.33;;;0.75;;
52734;SDS011;38631;47.572;10.704;2023-02-18T10:19:31;3.40;;;0.85;;
52734;SDS011;38631;47.572;10.704;2023-02-18T10:22:00;2.13;;;0.90;;
52734;SDS011;38631;47.572;10.704;2023-02-18T10:24:32;3.33;;;0.88;;
52734;SDS011;38631;47.572;10.704;2023-02-18T10:27:03;1.63;;;0.60;;
52734;SDS011;38631;47.572;10.704;2023-02-18T10:29:30;2.95;;;1.38;;
52734;SDS011;38631;47.572;10.704;2023-02-18T10:34:47;2.20;;;0.93;;
52734;SDS011;38631;47.572;10.704;2023-02-18T10:48:18;3.38;;;1.25;;
52734;SDS011;38631;47.572;10.704;2023-02-18T10:51:20;3.30;;;1.08;;
52734;SDS011;38631;47.572;10.704;2023-02-18T10:53:49;2.60;;;1.02;;
52734;SDS011;38631;47.572;10.704;2023-02-18T10:56:37;2.10;;;0.95;;
52734;SDS011;38631;47.572;10.704;2023-02-18T10:59:11;2.78;;;1.50;;
52734;SDS011;38631;47.572;10.704;2023-02-18T11:01:44;2.72;;;1.05;;
52734;SDS011;38631;47.572;10.704;2023-02-18T11:04:16;3.50;;;1.23;;
52734;SDS011;38631;47.572;10.704;2023-02-18T11:06:48;2.72;;;1.20;;
52734;SDS011;38631;47.572;10.704;2023-02-18T11:12:25;4.00;;;1.13;;
52734;SDS011;38631;47.572;10.704;2023-02-18T11:15:05;3.10;;;1.48;;
52734;SDS011;38631;47.572;10.704;2023-02-18T11:17:34;3.40;;;1.20;;
52734;SDS011;38631;47.572;10.704;2023-02-18T11:20:20;2.53;;;1.20;;
52734;SDS011;38631;47.572;10.704;2023-02-18T11:22:48;3.10;;;1.13;;
52734;SDS011;38631;47.572;10.704;2023-02-18T11:25:19;4.45;;;1.27;;
52734;SDS011;38631;47.572;10.704;2023-02-18T11:27:56;2.08;;;1.35;;
52734;SDS011;38631;47.572;10.704;2023-02-18T11:30:25;2.00;;;1.10;;
52734;SDS011;38631;47.572;10.704;2023-02-18T11:33:38;2.47;;;1.08;;
52734;SDS011;38631;47.572;10.704;2023-02-18T11:35:49;3.75;;;1.70;;
52734;SDS011;38631;47.572;10.704;2023-02-18T11:38:26;3.70;;;1.25;;
52734;SDS011;38631;47.572;10.704;2023-02-18T11:41:03;4.60;;;1.60;;
52734;SDS011;38631;47.572;10.704;2023-02-18T11:43:36;1.98;;;1.30;;
52734;SDS011;38631;47.572;10.704;2023-02-18T11:46:10;4.10;;;1.35;;
52734;SDS011;38631;47.572;10.704;2023-02-18T11:48:40;2.33;;;1.10;;
52734;SDS011;38631;47.572;10.704;2023-02-18T11:51:05;2.35;;;1.30;;
52734;SDS011;38631;47.572;10.704;2023-02-18T11:53:38;4.57;;;1.83;;
52734;SDS011;38631;47.572;10.704;2023-02-18T11:56:15;3.65;;;2.38;;
52734;SDS011;38631;47.572;10.704;2023-02-18T11:58:43;3.42;;;1.45;;
52734;SDS011;38631;47.572;10.704;2023-02-18T12:01:17;3.07;;;1.10;;
52734;SDS011;38631;47.572;10.704;2023-02-18T12:03:52;2.47;;;1.20;;
52734;SDS011;38631;47.572;10.704;2023-02-18T12:06:24;2.58;;;1.25;;
52734;SDS011;38631;47.572;10.704;2023-02-18T12:09:30;1.60;;;0.90;;
52734;SDS011;38631;47.572;10.704;2023-02-18T12:12:05;2.38;;;1.00;;
52734;SDS011;38631;47.572;10.704;2023-02-18T12:14:37;3.30;;;1.30;;
52734;SDS011;38631;47.572;10.704;2023-02-18T12:20:03;2.95;;;0.70;;
52734;SDS011;38631;47.572;10.704;2023-02-18T12:22:45;2.35;;;0.70;;
52734;SDS011;38631;47.572;10.704;2023-02-18T12:25:23;1.45;;;0.40;;
52734;SDS011;38631;47.572;10.704;2023-02-18T12:30:51;0.40;;;0.15;;
52734;SDS011;38631;47.572;10.704;2023-02-18T12:36:27;1.15;;;0.38;;
52734;SDS011;38631;47.572;10.704;2023-02-18T12:42:09;1.20;;;0.20;;
52734;SDS011;38631;47.572;10.704;2023-02-18T12:53:20;0.90;;;0.30;;
52734;SDS011;38631;47.572;10.704;2023-02-18T12:58:47;2.03;;;0.30;;
52734;SDS011;38631;47.572;10.704;2023-02-18T13:01:47;2.80;;;0.65;;
52734;SDS011;38631;47.572;10.704;2023-02-18T13:12:56;0.70;;;0.30;;
52734;SDS011;38631;47.572;10.704;2023-02-18T13:18:02;0.55;;;0.30;;
52734;SDS011;38631;47.572;10.704;2023-02-18T13:20:47;1.20;;;0.28;;
52734;SDS011;38631;47.572;10.704;2023-02-18T13:23:23;0.30;;;0.20;;
52734;SDS011;38631;47.572;10.704;2023-02-18T13:25:56;1.27;;;0.30;;
52734;SDS011;38631;47.572;10.704;2023-02-18T13:28:28;0.47;;;0.30;;
52734;SDS011;38631;47.572;10.704;2023-02-18T13:33:50;0.73;;;0.20;;
52734;SDS011;38631;47.572;10.704;2023-02-18T13:39:21;0.80;;;0.20;;
52734;SDS011;38631;47.572;10.704;2023-02-18T13:41:49;1.88;;;0.10;;
52734;SDS011;38631;47.572;10.704;2023-02-18T13:46:53;0.65;;;0.30;;
52734;SDS011;38631;47.572;10.704;2023-02-18T13:49:22;0.28;;;0.10;;
52734;SDS011;38631;47.572;10.704;2023-02-18T13:51:50;1.27;;;0.40;;
52734;SDS011;38631;47.572;10.704;2023-02-18T13:54:28;1.15;;;1.05;;
52734;SDS011;38631;47.572;10.704;2023-02-18T13:56:59;0.20;;;0.20;;
52734;SDS011;38631;47.572;10.704;2023-02-18T13:59:44;0.93;;;0.50;;
52734;SDS011;38631;47.572;10.704;2023-02-18T14:02:36;0.85;;;0.28;;
52734;SDS011;38631;47.572;10.704;2023-02-18T14:05:20;0.50;;;0.30;;
52734;SDS011;38631;47.572;10.704;2023-02-18T14:07:51;1.83;;;0.20;;
52734;SDS011;38631;47.572;10.704;2023-02-18T14:10:31;0.32;;;0.20;;
52734;SDS011;38631;47.572;10.704;2023-02-18T14:17:51;0.60;;;0.20;;
52734;SDS011;38631;47.572;10.704;2023-02-18T14:25:52;0.32;;;0.20;;
52734;SDS011;38631;47.572;10.704;2023-02-18T14:28:35;0.70;;;0.30;;
52734;SDS011;38631;47.572;10.704;2023-02-18T14:31:50;0.30;;;0.20;;
52734;SDS011;38631;47.572;10.704;2023-02-18T14:36:29;0.50;;;0.20;;
52734;SDS011;38631;47.572;10.704;2023-02-18T14:39:10;0.55;;;0.40;;
52734;SDS011;38631;47.572;10.704;2023-02-18T14:41:59;0.70;;;0.20;;
52734;SDS011;38631;47.572;10.704;2023-02-18T14:49:51;0.20;;;0.17;;
52734;SDS011;38631;47.572;10.704;2023-02-18T14:52:21;0.65;;;0.20;;
52734;SDS011;38631;47.572;10.704;2023-02-18T14:54:53;0.80;;;0.20;;
52734;SDS011;38631;47.572;10.704;2023-02-18T14:57:20;1.75;;;0.20;;
52734;SDS011;38631;47.572;10.704;2023-02-18T15:00:00;0.35;;;0.17;;
52734;SDS011;38631;47.572;10.704;2023-02-18T15:02:27;3.47;;;0.40;;
52734;SDS011;38631;47.572;10.704;2023-02-18T15:05:04;0.40;;;0.20;;
52734;SDS011;38631;47.572;10.704;2023-02-18T15:07:40;1.13;;;0.30;;
52734;SDS011;38631;47.572;10.704;2023-02-18T15:10:10;0.82;;;0.20;;
52734;SDS011;38631;47.572;10.704;2023-02-18T15:12:38;1.08;;;0.30;;
52734;SDS011;38631;47.572;10.704;2023-02-18T15:15:04;0.57;;;0.20;;
52734;SDS011;38631;47.572;10.704;2023-02-18T15:17:30;1.45;;;0.20;;
52734;SDS011;38631;47.572;10.704;2023-02-18T15:19:56;0.93;;;0.20;;
52734;SDS011;38631;47.572;10.704;2023-02-18T15:22:30;0.77;;;0.40;;
52734;SDS011;38631;47.572;10.704;2023-02-18T15:24:58;0.45;;;0.30;;
52734;SDS011;38631;47.572;10.704;2023-02-18T15:27:25;0.93;;;0.63;;
52734;SDS011;38631;47.572;10.704;2023-02-18T15:30:15;0.57;;;0.40;;
52734;SDS011;38631;47.572;10.704;2023-02-18T15:32:55;0.40;;;0.20;;
52734;SDS011;38631;47.572;10.704;2023-02-18T15:35:25;1.38;;;0.40;;
52734;SDS011;38631;47.572;10.704;2023-02-18T15:37:54;0.85;;;0.35;;
52734;SDS011;38631;47.572;10.704;2023-02-18T15:40:23;0.60;;;0.22;;
52734;SDS011;38631;47.572;10.704;2023-02-18T15:45:20;1.58;;;0.30;;
52734;SDS011;38631;47.572;10.704;2023-02-18T15:47:55;2.33;;;0.43;;
52734;SDS011;38631;47.572;10.704;2023-02-18T15:50:53;2.88;;;1.33;;
52734;SDS011;38631;47.572;10.704;2023-02-18T15:53:20;6.28;;;3.67;;
52734;SDS011;38631;47.572;10.704;2023-02-18T15:55:48;7.93;;;5.13;;
52734;SDS011;38631;47.572;10.704;2023-02-18T16:00:52;1.92;;;1.13;;
52734;SDS011;38631;47.572;10.704;2023-02-18T16:03:25;1.77;;;1.00;;
52734;SDS011;38631;47.572;10.704;2023-02-18T16:12:04;2.85;;;1.48;;
52734;SDS011;38631;47.572;10.704;2023-02-18T16:14:26;3.10;;;1.77;;
52734;SDS011;38631;47.572;10.704;2023-02-18T16:19:30;2.13;;;1.67;;
52734;SDS011;38631;47.572;10.704;2023-02-18T16:21:56;3.63;;;1.80;;
52734;SDS011;38631;47.572;10.704;2023-02-18T16:24:25;6.07;;;3.72;;
52734;SDS011;38631;47.572;10.704;2023-02-18T16:26:57;9.00;;;5.50;;
52734;SDS011;38631;47.572;10.704;2023-02-18T16:32:09;8.70;;;4.53;;
52734;SDS011;38631;47.572;10.704;2023-02-18T16:34:35;5.40;;;3.13;;
52734;SDS011;38631;47.572;10.704;2023-02-18T16:37:00;6.88;;;3.50;;
52734;SDS011;38631;47.572;10.704;2023-02-18T16:39:45;4.60;;;2.80;;
52734;SDS011;38631;47.572;10.704;2023-02-18T16:42:11;3.47;;;2.17;;
52734;SDS011;38631;47.572;10.704;2023-02-18T16:44:38;2.88;;;1.67;;
52734;SDS011;38631;47.572;10.704;2023-02-18T16:47:04;2.30;;;1.48;;
52734;SDS011;38631;47.572;10.704;2023-02-18T16:49:30;2.38;;;1.20;;
52734;SDS011;38631;47.572;10.704;2023-02-18T16:52:05;5.13;;;1.83;;
52734;SDS011;38631;47.572;10.704;2023-02-18T16:54:32;4.00;;;1.33;;
52734;SDS011;38631;47.572;10.704;2023-02-18T16:56:58;4.60;;;1.98;;
52734;SDS011;38631;47.572;10.704;2023-02-18T16:59:23;4.35;;;2.13;;
52734;SDS011;38631;47.572;10.704;2023-02-18T17:01:50;2.85;;;1.95;;
52734;SDS011;38631;47.572;10.704;2023-02-18T17:04:16;5.18;;;3.10;;
52734;SDS011;38631;47.572;10.704;2023-02-18T17:06:44;8.45;;;4.47;;
52734;SDS011;38631;47.572;10.704;2023-02-18T17:09:17;6.93;;;3.50;;
52734;SDS011;38631;47.572;10.704;2023-02-18T17:11:44;9.60;;;6.25;;
52734;SDS011;38631;47.572;10.704;2023-02-18T17:14:13;10.70;;;5.28;;